sensor_id;sensor_type;location;lat;lon;timestamp;P1;durP1;ratioP1;P2;durP2;ratioP2
9248;SDS011;4660;41.768;26.198;2023-08-30T00:00:40;6.38;;;4.60;;
9248;SDS011;4660;41.768;26.198;2023-08-30T00:03:06;5.65;;;4.32;;
9248;SDS011;4660;41.768;26.198;2023-08-30T00:05:32;6.07;;;4.65;;
9248;SDS011;4660;41.768;26.198;2023-08-30T00:07:58;8.60;;;4.30;;
9248;SDS011;4660;41.768;26.198;2023-08-30T00:10:23;6.85;;;4.13;;
9248;SDS011;4660;41.768;26.198;2023-08-30T00:12:49;5.40;;;4.20;;
9248;SDS011;4660;41.768;26.198;2023-08-30T00:15:14;5.85;;;4.20;;
9248;SDS011;4660;41.768;26.198;2023-08-30T00:17:41;7.30;;;4.35;;
9248;SDS011;4660;41.768;26.198;2023-08-30T00:20:06;11.20;;;4.82;;
9248;SDS011;4660;41.768;26.198;2023-08-30T00:22:34;7.63;;;4.47;;
9248;SDS011;4660;41.768;26.198;2023-08-30T00:24:59;9.95;;;4.45;;
9248;SDS011;4660;41.768;26.198;2023-08-30T00:27:25;7.18;;;4.43;;
9248;SDS011;4660;41.768;26.198;2023-08-30T00:29:50;10.80;;;4.80;;
9248;SDS011;4660;41.768;26.198;2023-08-30T00:32:16;8.55;;;4.25;;
9248;SDS011;4660;41.768;26.198;2023-08-30T00:34:42;6.47;;;4.15;;
9248;SDS011;4660;41.768;26.198;2023-08-30T00:37:07;7.85;;;4.43;;
9248;SDS011;4660;41.768;26.198;2023-08-30T00:39:34;6.40;;;4.18;;
9248;SDS011;4660;41.768;26.198;2023-08-30T00:42:02;6.15;;;4.20;;
9248;SDS011;4660;41.768;26.198;2023-08-30T00:44:31;8.60;;;5.22;;
9248;SDS011;4660;41.768;26.198;2023-08-30T00:46:57;8.18;;;4.93;;
9248;SDS011;4660;41.768;26.198;2023-08-30T00:49:23;7.78;;;5.03;;
9248;SDS011;4660;41.768;26.198;2023-08-30T00:51:49;10.77;;;4.72;;
9248;SDS011;4660;41.768;26.198;2023-08-30T00:54:15;7.22;;;4.63;;
9248;SDS011;4660;41.768;26.198;2023-08-30T00:56:41;7.18;;;5.00;;
9248;SDS011;4660;41.768;26.198;2023-08-30T00:59:07;9.65;;;4.65;;
9248;SDS011;4660;41.768;26.198;2023-08-30T01:01:33;6.65;;;4.40;;
9248;SDS011;4660;41.768;26.198;2023-08-30T01:03:58;6.70;;;4.05;;
9248;SDS011;4660;41.768;26.198;2023-08-30T01:06:24;6.05;;;4.53;;
9248;SDS011;4660;41.768;26.198;2023-08-30T01:08:50;7.78;;;4.88;;
9248;SDS011;4660;41.768;26.198;2023-08-30T01:11:29;5.95;;;4.45;;
9248;SDS011;4660;41.768;26.198;2023-08-30T01:14:04;5.38;;;4.30;;
9248;SDS011;4660;41.768;26.198;2023-08-30T01:16:37;4.97;;;4.20;;
9248;SDS011;4660;41.768;26.198;2023-08-30T01:19:26;5.22;;;4.55;;
9248;SDS011;4660;41.768;26.198;2023-08-30T01:22:08;9.10;;;4.68;;
9248;SDS011;4660;41.768;26.198;2023-08-30T01:27:41;9.02;;;4.50;;
9248;SDS011;4660;41.768;26.198;2023-08-30T01:30:08;7.78;;;5.18;;
9248;SDS011;4660;41.768;26.198;2023-08-30T01:32:36;6.57;;;4.65;;
9248;SDS011;4660;41.768;26.198;2023-08-30T01:35:04;7.50;;;4.65;;
9248;SDS011;4660;41.768;26.198;2023-08-30T01:37:32;8.52;;;5.45;;
9248;SDS011;4660;41.768;26.198;2023-08-30T01:39:58;7.68;;;4.68;;
9248;SDS011;4660;41.768;26.198;2023-08-30T01:42:25;9.20;;;4.68;;
9248;SDS011;4660;41.768;26.198;2023-08-30T01:44:53;8.70;;;4.88;;
9248;SDS011;4660;41.768;26.198;2023-08-30T01:47:23;11.75;;;4.13;;
9248;SDS011;4660;41.768;26.198;2023-08-30T01:49:52;5.80;;;4.72;;
9248;SDS011;4660;41.768;26.198;2023-08-30T01:52:19;7.93;;;4.72;;
9248;SDS011;4660;41.768;26.198;2023-08-30T01:54:46;5.72;;;4.75;;
9248;SDS011;4660;41.768;26.198;2023-08-30T01:57:13;8.18;;;4.82;;
9248;SDS011;4660;41.768;26.198;2023-08-30T01:59:38;7.22;;;4.57;;
9248;SDS011;4660;41.768;26.198;2023-08-30T02:02:07;7.10;;;5.35;;
9248;SDS011;4660;41.768;26.198;2023-08-30T02:04:32;7.97;;;5.22;;
9248;SDS011;4660;41.768;26.198;2023-08-30T02:07:00;7.15;;;4.68;;
9248;SDS011;4660;41.768;26.198;2023-08-30T02:09:30;8.05;;;4.28;;
9248;SDS011;4660;41.768;26.198;2023-08-30T02:11:57;8.65;;;4.68;;
9248;SDS011;4660;41.768;26.198;2023-08-30T02:14:29;6.80;;;4.90;;
9248;SDS011;4660;41.768;26.198;2023-08-30T02:16:55;6.20;;;4.82;;
9248;SDS011;4660;41.768;26.198;2023-08-30T02:19:21;6.30;;;4.28;;
9248;SDS011;4660;41.768;26.198;2023-08-30T02:21:48;6.57;;;5.00;;
9248;SDS011;4660;41.768;26.198;2023-08-30T02:24:14;5.95;;;4.85;;
9248;SDS011;4660;41.768;26.198;2023-08-30T02:26:40;4.47;;;3.90;;
9248;SDS011;4660;41.768;26.198;2023-08-30T02:29:05;8.13;;;4.20;;
9248;SDS011;4660;41.768;26.198;2023-08-30T02:31:31;4.90;;;4.38;;
9248;SDS011;4660;41.768;26.198;2023-08-30T02:33:56;6.28;;;4.25;;
9248;SDS011;4660;41.768;26.198;2023-08-30T02:36:22;6.18;;;4.75;;
9248;SDS011;4660;41.768;26.198;2023-08-30T02:38:47;10.18;;;4.97;;
9248;SDS011;4660;41.768;26.198;2023-08-30T02:41:13;6.65;;;4.85;;
9248;SDS011;4660;41.768;26.198;2023-08-30T02:43:38;8.77;;;4.80;;
9248;SDS011;4660;41.768;26.198;2023-08-30T02:46:04;11.30;;;5.30;;
9248;SDS011;4660;41.768;26.198;2023-08-30T02:48:30;8.95;;;4.95;;
9248;SDS011;4660;41.768;26.198;2023-08-30T02:50:56;7.63;;;5.05;;
9248;SDS011;4660;41.768;26.198;2023-08-30T02:53:25;9.38;;;5.63;;
9248;SDS011;4660;41.768;26.198;2023-08-30T02:55:50;8.43;;;5.07;;
9248;SDS011;4660;41.768;26.198;2023-08-30T02:58:16;6.50;;;4.85;;
9248;SDS011;4660;41.768;26.198;2023-08-30T03:00:41;6.40;;;5.20;;
9248;SDS011;4660;41.768;26.198;2023-08-30T03:03:07;8.82;;;4.43;;
9248;SDS011;4660;41.768;26.198;2023-08-30T03:05:32;6.72;;;4.88;;
9248;SDS011;4660;41.768;26.198;2023-08-30T03:07:58;6.53;;;5.20;;
9248;SDS011;4660;41.768;26.198;2023-08-30T03:10:24;7.75;;;4.70;;
9248;SDS011;4660;41.768;26.198;2023-08-30T03:12:49;7.03;;;5.07;;
9248;SDS011;4660;41.768;26.198;2023-08-30T03:15:15;9.50;;;5.20;;
9248;SDS011;4660;41.768;26.198;2023-08-30T03:17:40;8.95;;;4.75;;
9248;SDS011;4660;41.768;26.198;2023-08-30T03:20:06;6.15;;;5.10;;
9248;SDS011;4660;41.768;26.198;2023-08-30T03:22:32;10.45;;;5.00;;
9248;SDS011;4660;41.768;26.198;2023-08-30T03:24:58;6.65;;;4.47;;
9248;SDS011;4660;41.768;26.198;2023-08-30T03:27:24;6.78;;;4.65;;
9248;SDS011;4660;41.768;26.198;2023-08-30T03:29:50;6.30;;;4.80;;
9248;SDS011;4660;41.768;26.198;2023-08-30T03:32:16;7.15;;;5.40;;
9248;SDS011;4660;41.768;26.198;2023-08-30T03:34:44;9.57;;;4.95;;
9248;SDS011;4660;41.768;26.198;2023-08-30T03:37:10;6.88;;;5.40;;
9248;SDS011;4660;41.768;26.198;2023-08-30T03:39:36;6.40;;;5.25;;
9248;SDS011;4660;41.768;26.198;2023-08-30T03:42:01;6.45;;;5.40;;
9248;SDS011;4660;41.768;26.198;2023-08-30T03:44:27;10.90;;;5.45;;
9248;SDS011;4660;41.768;26.198;2023-08-30T03:46:53;9.10;;;5.53;;
9248;SDS011;4660;41.768;26.198;2023-08-30T03:49:22;10.23;;;6.13;;
9248;SDS011;4660;41.768;26.198;2023-08-30T03:51:53;9.48;;;5.85;;
9248;SDS011;4660;41.768;26.198;2023-08-30T03:54:21;13.07;;;5.85;;
9248;SDS011;4660;41.768;26.198;2023-08-30T03:56:47;6.25;;;5.57;;
9248;SDS011;4660;41.768;26.198;2023-08-30T03:59:13;8.13;;;5.88;;
9248;SDS011;4660;41.768;26.198;2023-08-30T04:01:38;8.98;;;5.70;;
9248;SDS011;4660;41.768;26.198;2023-08-30T04:04:04;8.55;;;5.80;;
9248;SDS011;4660;41.768;26.198;2023-08-30T04:06:30;12.50;;;6.38;;
9248;SDS011;4660;41.768;26.198;2023-08-30T04:08:56;6.68;;;5.30;;
9248;SDS011;4660;41.768;26.198;2023-08-30T04:11:22;10.13;;;5.40;;
9248;SDS011;4660;41.768;26.198;2023-08-30T04:13:48;15.23;;;5.45;;
9248;SDS011;4660;41.768;26.198;2023-08-30T04:16:14;10.48;;;6.10;;
9248;SDS011;4660;41.768;26.198;2023-08-30T04:18:39;7.97;;;5.55;;
9248;SDS011;4660;41.768;26.198;2023-08-30T04:21:05;12.93;;;6.03;;
9248;SDS011;4660;41.768;26.198;2023-08-30T04:23:32;15.48;;;6.38;;
9248;SDS011;4660;41.768;26.198;2023-08-30T04:25:58;12.80;;;6.75;;
9248;SDS011;4660;41.768;26.198;2023-08-30T04:28:24;14.40;;;6.80;;
9248;SDS011;4660;41.768;26.198;2023-08-30T04:30:49;12.07;;;6.45;;
9248;SDS011;4660;41.768;26.198;2023-08-30T04:33:18;9.27;;;6.18;;
9248;SDS011;4660;41.768;26.198;2023-08-30T04:35:44;12.18;;;6.10;;
9248;SDS011;4660;41.768;26.198;2023-08-30T04:38:09;11.90;;;7.32;;
9248;SDS011;4660;41.768;26.198;2023-08-30T04:40:35;11.32;;;6.88;;
9248;SDS011;4660;41.768;26.198;2023-08-30T04:43:01;13.98;;;7.20;;
9248;SDS011;4660;41.768;26.198;2023-08-30T04:45:27;13.70;;;7.25;;
9248;SDS011;4660;41.768;26.198;2023-08-30T04:47:53;15.30;;;7.10;;
9248;SDS011;4660;41.768;26.198;2023-08-30T04:50:18;16.17;;;7.30;;
9248;SDS011;4660;41.768;26.198;2023-08-30T04:52:44;10.07;;;6.95;;
9248;SDS011;4660;41.768;26.198;2023-08-30T04:55:09;10.95;;;6.50;;
9248;SDS011;4660;41.768;26.198;2023-08-30T04:57:35;11.00;;;6.80;;
9248;SDS011;4660;41.768;26.198;2023-08-30T05:00:01;11.55;;;6.38;;
9248;SDS011;4660;41.768;26.198;2023-08-30T05:02:30;10.00;;;5.88;;
9248;SDS011;4660;41.768;26.198;2023-08-30T05:04:56;10.25;;;6.07;;
9248;SDS011;4660;41.768;26.198;2023-08-30T05:07:21;9.30;;;5.15;;
9248;SDS011;4660;41.768;26.198;2023-08-30T05:09:47;15.35;;;6.25;;
9248;SDS011;4660;41.768;26.198;2023-08-30T05:12:13;8.00;;;6.05;;
9248;SDS011;4660;41.768;26.198;2023-08-30T05:14:38;9.77;;;5.50;;
9248;SDS011;4660;41.768;26.198;2023-08-30T05:17:05;7.78;;;5.22;;
9248;SDS011;4660;41.768;26.198;2023-08-30T05:19:31;12.55;;;6.07;;
9248;SDS011;4660;41.768;26.198;2023-08-30T05:21:57;22.05;;;6.43;;
9248;SDS011;4660;41.768;26.198;2023-08-30T05:24:28;14.55;;;6.32;;
9248;SDS011;4660;41.768;26.198;2023-08-30T05:26:56;12.27;;;6.18;;
9248;SDS011;4660;41.768;26.198;2023-08-30T05:29:22;8.15;;;5.22;;
9248;SDS011;4660;41.768;26.198;2023-08-30T05:31:47;10.75;;;6.45;;
9248;SDS011;4660;41.768;26.198;2023-08-30T05:34:13;9.52;;;5.30;;
9248;SDS011;4660;41.768;26.198;2023-08-30T05:36:39;12.80;;;5.78;;
9248;SDS011;4660;41.768;26.198;2023-08-30T05:39:04;6.32;;;5.22;;
9248;SDS011;4660;41.768;26.198;2023-08-30T05:41:30;6.10;;;5.43;;
9248;SDS011;4660;41.768;26.198;2023-08-30T05:43:56;13.10;;;5.28;;
9248;SDS011;4660;41.768;26.198;2023-08-30T05:46:22;9.18;;;5.43;;
9248;SDS011;4660;41.768;26.198;2023-08-30T05:48:47;8.70;;;5.53;;
9248;SDS011;4660;41.768;26.198;2023-08-30T05:51:13;10.38;;;5.90;;
9248;SDS011;4660;41.768;26.198;2023-08-30T05:53:38;9.85;;;5.10;;
9248;SDS011;4660;41.768;26.198;2023-08-30T05:56:04;8.80;;;5.45;;
9248;SDS011;4660;41.768;26.198;2023-08-30T05:58:30;8.07;;;5.00;;
9248;SDS011;4660;41.768;26.198;2023-08-30T06:00:58;9.27;;;5.45;;
9248;SDS011;4660;41.768;26.198;2023-08-30T06:03:25;12.55;;;5.25;;
9248;SDS011;4660;41.768;26.198;2023-08-30T06:05:51;5.90;;;5.22;;
9248;SDS011;4660;41.768;26.198;2023-08-30T06:08:18;11.00;;;5.50;;
9248;SDS011;4660;41.768;26.198;2023-08-30T06:10:44;8.77;;;5.60;;
9248;SDS011;4660;41.768;26.198;2023-08-30T06:13:10;8.00;;;5.53;;
9248;SDS011;4660;41.768;26.198;2023-08-30T06:15:36;7.60;;;5.63;;
9248;SDS011;4660;41.768;26.198;2023-08-30T06:18:03;13.30;;;5.93;;
9248;SDS011;4660;41.768;26.198;2023-08-30T06:20:29;12.95;;;5.85;;
9248;SDS011;4660;41.768;26.198;2023-08-30T06:22:57;11.82;;;6.18;;
9248;SDS011;4660;41.768;26.198;2023-08-30T06:25:23;11.30;;;6.55;;
9248;SDS011;4660;41.768;26.198;2023-08-30T06:27:56;8.98;;;5.80;;
9248;SDS011;4660;41.768;26.198;2023-08-30T06:30:27;10.82;;;6.70;;
9248;SDS011;4660;41.768;26.198;2023-08-30T06:32:55;11.82;;;6.03;;
9248;SDS011;4660;41.768;26.198;2023-08-30T06:35:21;9.30;;;6.60;;
9248;SDS011;4660;41.768;26.198;2023-08-30T06:37:46;8.15;;;6.30;;
9248;SDS011;4660;41.768;26.198;2023-08-30T06:40:12;8.40;;;7.05;;
9248;SDS011;4660;41.768;26.198;2023-08-30T06:42:39;12.50;;;6.75;;
9248;SDS011;4660;41.768;26.198;2023-08-30T06:45:07;9.20;;;6.63;;
9248;SDS011;4660;41.768;26.198;2023-08-30T06:47:33;12.18;;;6.57;;
9248;SDS011;4660;41.768;26.198;2023-08-30T06:50:00;12.02;;;6.80;;
9248;SDS011;4660;41.768;26.198;2023-08-30T06:52:25;11.10;;;6.63;;
9248;SDS011;4660;41.768;26.198;2023-08-30T06:54:51;13.73;;;7.38;;
9248;SDS011;4660;41.768;26.198;2023-08-30T06:57:17;10.18;;;6.63;;
9248;SDS011;4660;41.768;26.198;2023-08-30T06:59:42;10.73;;;7.30;;
9248;SDS011;4660;41.768;26.198;2023-08-30T07:02:08;10.52;;;7.10;;
9248;SDS011;4660;41.768;26.198;2023-08-30T07:04:34;12.20;;;7.55;;
9248;SDS011;4660;41.768;26.198;2023-08-30T07:06:59;10.93;;;8.48;;
9248;SDS011;4660;41.768;26.198;2023-08-30T07:09:25;13.27;;;9.65;;
9248;SDS011;4660;41.768;26.198;2023-08-30T07:11:55;9.65;;;7.95;;
9248;SDS011;4660;41.768;26.198;2023-08-30T07:14:21;13.35;;;8.20;;
9248;SDS011;4660;41.768;26.198;2023-08-30T07:16:46;10.20;;;8.80;;
9248;SDS011;4660;41.768;26.198;2023-08-30T07:19:14;14.27;;;10.30;;
9248;SDS011;4660;41.768;26.198;2023-08-30T07:21:41;13.55;;;9.50;;
9248;SDS011;4660;41.768;26.198;2023-08-30T07:24:07;14.35;;;9.27;;
9248;SDS011;4660;41.768;26.198;2023-08-30T07:26:33;10.82;;;8.85;;
9248;SDS011;4660;41.768;26.198;2023-08-30T07:28:59;16.60;;;10.85;;
9248;SDS011;4660;41.768;26.198;2023-08-30T07:31:24;16.02;;;9.80;;
9248;SDS011;4660;41.768;26.198;2023-08-30T07:33:50;13.60;;;10.07;;
9248;SDS011;4660;41.768;26.198;2023-08-30T07:36:16;20.15;;;10.00;;
9248;SDS011;4660;41.768;26.198;2023-08-30T07:38:41;15.82;;;10.32;;
9248;SDS011;4660;41.768;26.198;2023-08-30T07:41:07;12.70;;;10.20;;
9248;SDS011;4660;41.768;26.198;2023-08-30T07:43:34;16.80;;;10.00;;
9248;SDS011;4660;41.768;26.198;2023-08-30T07:46:00;14.50;;;9.55;;
9248;SDS011;4660;41.768;26.198;2023-08-30T07:48:26;10.68;;;8.95;;
9248;SDS011;4660;41.768;26.198;2023-08-30T07:50:51;11.05;;;9.10;;
9248;SDS011;4660;41.768;26.198;2023-08-30T07:53:17;12.25;;;8.93;;
9248;SDS011;4660;41.768;26.198;2023-08-30T07:55:42;15.25;;;10.30;;
9248;SDS011;4660;41.768;26.198;2023-08-30T07:58:08;13.88;;;10.25;;
9248;SDS011;4660;41.768;26.198;2023-08-30T08:00:35;12.80;;;8.63;;
9248;SDS011;4660;41.768;26.198;2023-08-30T08:03:01;16.45;;;10.25;;
9248;SDS011;4660;41.768;26.198;2023-08-30T08:05:26;10.48;;;8.88;;
9248;SDS011;4660;41.768;26.198;2023-08-30T08:07:52;12.05;;;8.90;;
9248;SDS011;4660;41.768;26.198;2023-08-30T08:10:18;15.43;;;10.10;;
9248;SDS011;4660;41.768;26.198;2023-08-30T08:12:45;11.52;;;8.82;;
9248;SDS011;4660;41.768;26.198;2023-08-30T08:15:10;9.95;;;8.82;;
9248;SDS011;4660;41.768;26.198;2023-08-30T08:17:37;16.38;;;8.90;;
9248;SDS011;4660;41.768;26.198;2023-08-30T08:20:04;15.68;;;8.07;;
9248;SDS011;4660;41.768;26.198;2023-08-30T08:22:30;12.48;;;8.32;;
9248;SDS011;4660;41.768;26.198;2023-08-30T08:24:56;11.00;;;8.05;;
9248;SDS011;4660;41.768;26.198;2023-08-30T08:27:22;10.57;;;7.95;;
9248;SDS011;4660;41.768;26.198;2023-08-30T08:29:50;11.52;;;8.02;;
9248;SDS011;4660;41.768;26.198;2023-08-30T08:32:16;12.43;;;7.65;;
9248;SDS011;4660;41.768;26.198;2023-08-30T08:34:41;8.95;;;7.75;;
9248;SDS011;4660;41.768;26.198;2023-08-30T08:37:07;12.68;;;8.10;;
9248;SDS011;4660;41.768;26.198;2023-08-30T08:39:33;11.75;;;9.88;;
9248;SDS011;4660;41.768;26.198;2023-08-30T08:41:59;14.63;;;10.25;;
9248;SDS011;4660;41.768;26.198;2023-08-30T08:44:26;16.38;;;9.57;;
9248;SDS011;4660;41.768;26.198;2023-08-30T08:46:56;12.90;;;9.50;;
9248;SDS011;4660;41.768;26.198;2023-08-30T08:49:22;17.65;;;10.15;;
9248;SDS011;4660;41.768;26.198;2023-08-30T08:51:53;10.85;;;9.25;;
9248;SDS011;4660;41.768;26.198;2023-08-30T08:54:19;14.15;;;8.77;;
9248;SDS011;4660;41.768;26.198;2023-08-30T08:56:45;11.35;;;8.38;;
9248;SDS011;4660;41.768;26.198;2023-08-30T08:59:11;10.30;;;8.05;;
9248;SDS011;4660;41.768;26.198;2023-08-30T09:01:38;12.55;;;8.15;;
9248;SDS011;4660;41.768;26.198;2023-08-30T09:04:13;10.75;;;8.20;;
9248;SDS011;4660;41.768;26.198;2023-08-30T09:06:39;12.57;;;8.70;;
9248;SDS011;4660;41.768;26.198;2023-08-30T09:09:05;13.40;;;8.20;;
9248;SDS011;4660;41.768;26.198;2023-08-30T09:11:33;9.15;;;7.35;;
9248;SDS011;4660;41.768;26.198;2023-08-30T09:13:59;10.70;;;7.47;;
9248;SDS011;4660;41.768;26.198;2023-08-30T09:16:25;9.82;;;7.78;;
9248;SDS011;4660;41.768;26.198;2023-08-30T09:18:57;9.70;;;8.05;;
9248;SDS011;4660;41.768;26.198;2023-08-30T09:21:50;10.55;;;8.25;;
9248;SDS011;4660;41.768;26.198;2023-08-30T09:24:19;15.30;;;9.43;;
9248;SDS011;4660;41.768;26.198;2023-08-30T09:26:49;9.23;;;7.55;;
9248;SDS011;4660;41.768;26.198;2023-08-30T09:29:16;9.73;;;8.63;;
9248;SDS011;4660;41.768;26.198;2023-08-30T09:31:43;9.40;;;8.52;;
9248;SDS011;4660;41.768;26.198;2023-08-30T09:34:12;12.05;;;9.60;;
9248;SDS011;4660;41.768;26.198;2023-08-30T09:36:41;14.45;;;10.23;;
9248;SDS011;4660;41.768;26.198;2023-08-30T09:39:09;12.73;;;10.25;;
9248;SDS011;4660;41.768;26.198;2023-08-30T09:41:36;12.52;;;9.40;;
9248;SDS011;4660;41.768;26.198;2023-08-30T09:44:20;13.82;;;9.07;;
9248;SDS011;4660;41.768;26.198;2023-08-30T09:46:53;10.90;;;9.73;;
9248;SDS011;4660;41.768;26.198;2023-08-30T09:49:20;13.45;;;9.50;;
9248;SDS011;4660;41.768;26.198;2023-08-30T09:51:48;19.80;;;9.52;;
9248;SDS011;4660;41.768;26.198;2023-08-30T09:54:16;12.98;;;9.60;;
9248;SDS011;4660;41.768;26.198;2023-08-30T09:56:43;12.98;;;9.35;;
9248;SDS011;4660;41.768;26.198;2023-08-30T09:59:14;11.30;;;9.43;;
9248;SDS011;4660;41.768;26.198;2023-08-30T10:01:41;12.02;;;9.70;;
9248;SDS011;4660;41.768;26.198;2023-08-30T10:04:08;14.68;;;9.27;;
9248;SDS011;4660;41.768;26.198;2023-08-30T10:06:35;12.63;;;9.13;;
9248;SDS011;4660;41.768;26.198;2023-08-30T10:09:02;12.05;;;9.73;;
9248;SDS011;4660;41.768;26.198;2023-08-30T10:11:31;11.02;;;9.15;;
9248;SDS011;4660;41.768;26.198;2023-08-30T10:14:00;10.30;;;9.02;;
9248;SDS011;4660;41.768;26.198;2023-08-30T10:16:26;15.93;;;9.32;;
9248;SDS011;4660;41.768;26.198;2023-08-30T10:18:59;10.35;;;8.68;;
9248;SDS011;4660;41.768;26.198;2023-08-30T10:21:28;11.32;;;9.32;;
9248;SDS011;4660;41.768;26.198;2023-08-30T10:23:54;10.90;;;8.65;;
9248;SDS011;4660;41.768;26.198;2023-08-30T10:26:22;10.88;;;9.35;;
9248;SDS011;4660;41.768;26.198;2023-08-30T10:28:54;12.18;;;8.60;;
9248;SDS011;4660;41.768;26.198;2023-08-30T10:31:23;9.38;;;7.53;;
9248;SDS011;4660;41.768;26.198;2023-08-30T10:33:49;10.20;;;7.78;;
9248;SDS011;4660;41.768;26.198;2023-08-30T10:36:22;9.80;;;8.70;;
9248;SDS011;4660;41.768;26.198;2023-08-30T10:38:52;10.27;;;8.80;;
9248;SDS011;4660;41.768;26.198;2023-08-30T10:41:23;13.02;;;8.90;;
9248;SDS011;4660;41.768;26.198;2023-08-30T10:43:51;9.48;;;7.15;;
9248;SDS011;4660;41.768;26.198;2023-08-30T10:46:28;11.50;;;8.77;;
9248;SDS011;4660;41.768;26.198;2023-08-30T10:48:55;8.75;;;7.38;;
9248;SDS011;4660;41.768;26.198;2023-08-30T10:51:37;9.02;;;7.03;;
9248;SDS011;4660;41.768;26.198;2023-08-30T10:54:10;8.93;;;7.45;;
9248;SDS011;4660;41.768;26.198;2023-08-30T10:56:45;9.82;;;6.10;;
9248;SDS011;4660;41.768;26.198;2023-08-30T10:59:17;11.73;;;6.30;;
9248;SDS011;4660;41.768;26.198;2023-08-30T11:01:47;9.57;;;6.57;;
9248;SDS011;4660;41.768;26.198;2023-08-30T11:04:15;9.98;;;6.75;;
9248;SDS011;4660;41.768;26.198;2023-08-30T11:06:45;8.07;;;6.03;;
9248;SDS011;4660;41.768;26.198;2023-08-30T11:09:14;8.05;;;6.32;;
9248;SDS011;4660;41.768;26.198;2023-08-30T11:11:43;7.60;;;5.82;;
9248;SDS011;4660;41.768;26.198;2023-08-30T11:14:09;7.82;;;5.75;;
9248;SDS011;4660;41.768;26.198;2023-08-30T11:16:35;7.28;;;6.57;;
9248;SDS011;4660;41.768;26.198;2023-08-30T11:19:02;7.97;;;7.03;;
9248;SDS011;4660;41.768;26.198;2023-08-30T11:21:32;17.05;;;7.50;;
9248;SDS011;4660;41.768;26.198;2023-08-30T11:23:59;7.97;;;6.93;;
9248;SDS011;4660;41.768;26.198;2023-08-30T11:26:25;7.93;;;7.13;;
9248;SDS011;4660;41.768;26.198;2023-08-30T11:28:52;10.05;;;7.20;;
9248;SDS011;4660;41.768;26.198;2023-08-30T11:31:21;9.35;;;6.97;;
9248;SDS011;4660;41.768;26.198;2023-08-30T11:33:54;8.57;;;6.40;;
9248;SDS011;4660;41.768;26.198;2023-08-30T11:36:22;10.73;;;6.63;;
9248;SDS011;4660;41.768;26.198;2023-08-30T11:38:49;8.35;;;6.28;;
9248;SDS011;4660;41.768;26.198;2023-08-30T11:41:16;7.00;;;6.22;;
9248;SDS011;4660;41.768;26.198;2023-08-30T11:43:43;8.32;;;5.68;;
9248;SDS011;4660;41.768;26.198;2023-08-30T11:46:09;6.65;;;5.35;;
9248;SDS011;4660;41.768;26.198;2023-08-30T11:48:35;8.68;;;5.60;;
9248;SDS011;4660;41.768;26.198;2023-08-30T11:51:01;6.35;;;5.70;;
9248;SDS011;4660;41.768;26.198;2023-08-30T11:53:27;6.45;;;5.25;;
9248;SDS011;4660;41.768;26.198;2023-08-30T11:55:54;7.20;;;5.20;;
9248;SDS011;4660;41.768;26.198;2023-08-30T11:58:19;5.40;;;4.63;;
9248;SDS011;4660;41.768;26.198;2023-08-30T12:00:45;6.25;;;5.47;;
9248;SDS011;4660;41.768;26.198;2023-08-30T12:03:14;7.50;;;5.90;;
9248;SDS011;4660;41.768;26.198;2023-08-30T12:05:44;6.30;;;5.70;;
9248;SDS011;4660;41.768;26.198;2023-08-30T12:08:28;10.20;;;6.85;;
9248;SDS011;4660;41.768;26.198;2023-08-30T12:10:56;7.13;;;5.57;;
9248;SDS011;4660;41.768;26.198;2023-08-30T12:15:56;6.78;;;5.60;;
9248;SDS011;4660;41.768;26.198;2023-08-30T12:18:23;5.85;;;5.25;;
9248;SDS011;4660;41.768;26.198;2023-08-30T12:20:57;8.88;;;4.95;;
9248;SDS011;4660;41.768;26.198;2023-08-30T12:23:25;6.22;;;4.78;;
9248;SDS011;4660;41.768;26.198;2023-08-30T12:28:32;6.80;;;5.03;;
9248;SDS011;4660;41.768;26.198;2023-08-30T12:31:02;6.93;;;4.72;;
9248;SDS011;4660;41.768;26.198;2023-08-30T12:33:31;6.07;;;5.25;;
9248;SDS011;4660;41.768;26.198;2023-08-30T12:35:59;7.72;;;5.10;;
9248;SDS011;4660;41.768;26.198;2023-08-30T12:38:24;7.75;;;5.22;;
9248;SDS011;4660;41.768;26.198;2023-08-30T12:40:56;7.78;;;6.30;;
9248;SDS011;4660;41.768;26.198;2023-08-30T12:43:30;7.05;;;6.25;;
9248;SDS011;4660;41.768;26.198;2023-08-30T12:45:56;7.40;;;6.53;;
9248;SDS011;4660;41.768;26.198;2023-08-30T12:48:22;10.18;;;6.53;;
9248;SDS011;4660;41.768;26.198;2023-08-30T12:50:54;10.80;;;7.25;;
9248;SDS011;4660;41.768;26.198;2023-08-30T12:53:21;11.00;;;8.15;;
9248;SDS011;4660;41.768;26.198;2023-08-30T12:55:47;14.18;;;7.93;;
9248;SDS011;4660;41.768;26.198;2023-08-30T12:58:12;10.40;;;8.20;;
9248;SDS011;4660;41.768;26.198;2023-08-30T13:00:39;10.93;;;8.40;;
9248;SDS011;4660;41.768;26.198;2023-08-30T13:03:06;10.57;;;8.73;;
9248;SDS011;4660;41.768;26.198;2023-08-30T13:05:32;11.60;;;8.55;;
9248;SDS011;4660;41.768;26.198;2023-08-30T13:07:59;11.38;;;9.13;;
9248;SDS011;4660;41.768;26.198;2023-08-30T13:10:25;11.40;;;9.00;;
9248;SDS011;4660;41.768;26.198;2023-08-30T13:12:51;11.70;;;9.63;;
9248;SDS011;4660;41.768;26.198;2023-08-30T13:15:17;10.18;;;9.23;;
9248;SDS011;4660;41.768;26.198;2023-08-30T13:17:42;13.57;;;9.90;;
9248;SDS011;4660;41.768;26.198;2023-08-30T13:20:09;11.07;;;9.75;;
9248;SDS011;4660;41.768;26.198;2023-08-30T13:22:37;13.35;;;10.23;;
9248;SDS011;4660;41.768;26.198;2023-08-30T13:25:03;13.80;;;11.90;;
9248;SDS011;4660;41.768;26.198;2023-08-30T13:27:29;14.05;;;12.65;;
9248;SDS011;4660;41.768;26.198;2023-08-30T13:29:58;21.63;;;15.35;;
9248;SDS011;4660;41.768;26.198;2023-08-30T13:32:24;20.83;;;18.60;;
9248;SDS011;4660;41.768;26.198;2023-08-30T13:34:50;22.02;;;19.70;;
9248;SDS011;4660;41.768;26.198;2023-08-30T13:37:16;26.27;;;21.25;;
9248;SDS011;4660;41.768;26.198;2023-08-30T13:39:42;25.65;;;20.30;;
9248;SDS011;4660;41.768;26.198;2023-08-30T13:42:08;25.17;;;20.23;;
9248;SDS011;4660;41.768;26.198;2023-08-30T13:44:35;21.10;;;19.00;;
9248;SDS011;4660;41.768;26.198;2023-08-30T13:47:03;21.40;;;17.98;;
9248;SDS011;4660;41.768;26.198;2023-08-30T13:49:31;19.33;;;15.70;;
9248;SDS011;4660;41.768;26.198;2023-08-30T13:51:57;22.17;;;15.98;;
9248;SDS011;4660;41.768;26.198;2023-08-30T13:54:23;15.55;;;13.50;;
9248;SDS011;4660;41.768;26.198;2023-08-30T13:56:49;20.75;;;14.40;;
9248;SDS011;4660;41.768;26.198;2023-08-30T13:59:15;18.58;;;12.82;;
9248;SDS011;4660;41.768;26.198;2023-08-30T14:01:41;19.60;;;13.65;;
9248;SDS011;4660;41.768;26.198;2023-08-30T14:04:07;18.58;;;15.20;;
9248;SDS011;4660;41.768;26.198;2023-08-30T14:06:32;19.73;;;15.30;;
9248;SDS011;4660;41.768;26.198;2023-08-30T14:08:58;21.17;;;13.85;;
9248;SDS011;4660;41.768;26.198;2023-08-30T14:11:24;14.25;;;12.52;;
9248;SDS011;4660;41.768;26.198;2023-08-30T14:13:49;19.23;;;12.02;;
9248;SDS011;4660;41.768;26.198;2023-08-30T14:16:15;14.57;;;10.20;;
9248;SDS011;4660;41.768;26.198;2023-08-30T14:18:40;22.30;;;10.27;;
9248;SDS011;4660;41.768;26.198;2023-08-30T14:21:07;14.45;;;11.90;;
9248;SDS011;4660;41.768;26.198;2023-08-30T14:23:33;18.40;;;10.93;;
9248;SDS011;4660;41.768;26.198;2023-08-30T14:26:05;13.68;;;12.02;;
9248;SDS011;4660;41.768;26.198;2023-08-30T14:28:35;17.02;;;11.48;;
9248;SDS011;4660;41.768;26.198;2023-08-30T14:31:07;17.17;;;12.52;;
9248;SDS011;4660;41.768;26.198;2023-08-30T14:33:36;20.55;;;11.30;;
9248;SDS011;4660;41.768;26.198;2023-08-30T14:36:02;19.08;;;11.13;;
9248;SDS011;4660;41.768;26.198;2023-08-30T14:38:28;16.90;;;10.60;;
9248;SDS011;4660;41.768;26.198;2023-08-30T14:40:58;19.17;;;10.93;;
9248;SDS011;4660;41.768;26.198;2023-08-30T14:43:24;16.05;;;12.48;;
9248;SDS011;4660;41.768;26.198;2023-08-30T14:45:50;22.80;;;14.90;;
9248;SDS011;4660;41.768;26.198;2023-08-30T14:48:16;15.32;;;12.88;;
9248;SDS011;4660;41.768;26.198;2023-08-30T14:50:42;18.75;;;14.32;;
9248;SDS011;4660;41.768;26.198;2023-08-30T14:53:08;16.85;;;13.10;;
9248;SDS011;4660;41.768;26.198;2023-08-30T14:55:33;23.50;;;13.77;;
9248;SDS011;4660;41.768;26.198;2023-08-30T14:57:59;20.48;;;15.27;;
9248;SDS011;4660;41.768;26.198;2023-08-30T15:00:24;22.55;;;16.02;;